sensor_id;sensor_type;location;lat;lon;timestamp;P1;durP1;ratioP1;P2;durP2;ratioP2
64795;SDS011;51229;51.980;6.722;2023-02-11T00:00:00;45.40;;;20.42;;
64795;SDS011;51229;51.980;6.722;2023-02-11T00:02:26;40.88;;;20.33;;
64795;SDS011;51229;51.980;6.722;2023-02-11T00:04:53;41.72;;;21.20;;
64795;SDS011;51229;51.980;6.722;2023-02-11T00:07:19;42.03;;;20.92;;
64795;SDS011;51229;51.980;6.722;2023-02-11T00:09:45;43.28;;;20.63;;
64795;SDS011;51229;51.980;6.722;2023-02-11T00:12:11;45.50;;;21.23;;
64795;SDS011;51229;51.980;6.722;2023-02-11T00:14:39;46.00;;;19.38;;
64795;SDS011;51229;51.980;6.722;2023-02-11T00:17:05;41.40;;;19.63;;
64795;SDS011;51229;51.980;6.722;2023-02-11T00:19:31;39.58;;;20.00;;
64795;SDS011;51229;51.980;6.722;2023-02-11T00:21:57;39.28;;;18.30;;
64795;SDS011;51229;51.980;6.722;2023-02-11T00:24:23;35.90;;;18.25;;
64795;SDS011;51229;51.980;6.722;2023-02-11T00:26:49;36.38;;;15.90;;
64795;SDS011;51229;51.980;6.722;2023-02-11T00:29:15;35.10;;;17.98;;
64795;SDS011;51229;51.980;6.722;2023-02-11T00:31:41;34.00;;;17.48;;
64795;SDS011;51229;51.980;6.722;2023-02-11T00:34:07;39.60;;;17.85;;
64795;SDS011;51229;51.980;6.722;2023-02-11T00:36:33;38.15;;;18.23;;
64795;SDS011;51229;51.980;6.722;2023-02-11T00:38:59;41.53;;;19.95;;
64795;SDS011;51229;51.980;6.722;2023-02-11T00:41:26;36.38;;;17.98;;
64795;SDS011;51229;51.980;6.722;2023-02-11T00:43:52;45.63;;;20.23;;
64795;SDS011;51229;51.980;6.722;2023-02-11T00:46:18;34.80;;;16.88;;
64795;SDS011;51229;51.980;6.722;2023-02-11T00:48:45;24.73;;;12.90;;
64795;SDS011;51229;51.980;6.722;2023-02-11T00:51:11;37.20;;;17.23;;
64795;SDS011;51229;51.980;6.722;2023-02-11T00:53:37;35.33;;;17.67;;
64795;SDS011;51229;51.980;6.722;2023-02-11T00:56:03;33.92;;;16.17;;
64795;SDS011;51229;51.980;6.722;2023-02-11T00:58:29;33.42;;;16.00;;
64795;SDS011;51229;51.980;6.722;2023-02-11T01:00:56;33.05;;;16.35;;
64795;SDS011;51229;51.980;6.722;2023-02-11T01:03:23;33.22;;;16.02;;
64795;SDS011;51229;51.980;6.722;2023-02-11T01:05:49;33.83;;;16.30;;
64795;SDS011;51229;51.980;6.722;2023-02-11T01:08:15;31.63;;;14.52;;
64795;SDS011;51229;51.980;6.722;2023-02-11T01:10:41;32.33;;;15.35;;
64795;SDS011;51229;51.980;6.722;2023-02-11T01:13:08;36.10;;;15.05;;
64795;SDS011;51229;51.980;6.722;2023-02-11T01:15:34;29.50;;;14.65;;
64795;SDS011;51229;51.980;6.722;2023-02-11T01:18:00;34.85;;;15.70;;
64795;SDS011;51229;51.980;6.722;2023-02-11T01:20:26;28.67;;;14.70;;
64795;SDS011;51229;51.980;6.722;2023-02-11T01:22:55;28.42;;;15.30;;
64795;SDS011;51229;51.980;6.722;2023-02-11T01:25:21;31.30;;;15.80;;
64795;SDS011;51229;51.980;6.722;2023-02-11T01:27:47;29.23;;;14.32;;
64795;SDS011;51229;51.980;6.722;2023-02-11T01:30:13;34.90;;;15.90;;
64795;SDS011;51229;51.980;6.722;2023-02-11T01:32:39;26.65;;;12.88;;
64795;SDS011;51229;51.980;6.722;2023-02-11T01:35:07;29.60;;;15.00;;
64795;SDS011;51229;51.980;6.722;2023-02-11T01:37:34;30.67;;;14.25;;
64795;SDS011;51229;51.980;6.722;2023-02-11T01:40:01;29.75;;;14.60;;
64795;SDS011;51229;51.980;6.722;2023-02-11T01:42:27;31.98;;;14.82;;
64795;SDS011;51229;51.980;6.722;2023-02-11T01:44:53;28.00;;;14.00;;
64795;SDS011;51229;51.980;6.722;2023-02-11T01:47:20;29.58;;;13.80;;
64795;SDS011;51229;51.980;6.722;2023-02-11T01:49:51;28.55;;;13.38;;
64795;SDS011;51229;51.980;6.722;2023-02-11T01:52:22;29.20;;;13.10;;
64795;SDS011;51229;51.980;6.722;2023-02-11T01:54:58;26.80;;;13.43;;
64795;SDS011;51229;51.980;6.722;2023-02-11T01:57:45;23.05;;;12.45;;
64795;SDS011;51229;51.980;6.722;2023-02-11T02:02:57;23.50;;;12.50;;
64795;SDS011;51229;51.980;6.722;2023-02-11T02:07:59;26.95;;;12.43;;
64795;SDS011;51229;51.980;6.722;2023-02-11T02:10:28;28.42;;;13.07;;
64795;SDS011;51229;51.980;6.722;2023-02-11T02:12:55;28.63;;;13.88;;
64795;SDS011;51229;51.980;6.722;2023-02-11T02:15:34;27.50;;;12.55;;
64795;SDS011;51229;51.980;6.722;2023-02-11T02:18:02;26.33;;;12.20;;
64795;SDS011;51229;51.980;6.722;2023-02-11T02:25:57;24.13;;;11.93;;
64795;SDS011;51229;51.980;6.722;2023-02-11T02:34:05;24.13;;;11.98;;
64795;SDS011;51229;51.980;6.722;2023-02-11T02:36:47;23.00;;;10.63;;
64795;SDS011;51229;51.980;6.722;2023-02-11T02:39:19;23.73;;;11.32;;
64795;SDS011;51229;51.980;6.722;2023-02-11T02:41:46;24.10;;;12.50;;
64795;SDS011;51229;51.980;6.722;2023-02-11T02:44:13;22.98;;;12.60;;
64795;SDS011;51229;51.980;6.722;2023-02-11T02:46:39;25.08;;;12.00;;
64795;SDS011;51229;51.980;6.722;2023-02-11T02:49:08;29.67;;;12.50;;
64795;SDS011;51229;51.980;6.722;2023-02-11T03:02:17;22.15;;;11.93;;
64795;SDS011;51229;51.980;6.722;2023-02-11T03:04:56;22.73;;;11.32;;
64795;SDS011;51229;51.980;6.722;2023-02-11T03:07:43;22.15;;;9.95;;
64795;SDS011;51229;51.980;6.722;2023-02-11T03:10:13;21.45;;;11.07;;
64795;SDS011;51229;51.980;6.722;2023-02-11T03:12:41;20.60;;;9.82;;
64795;SDS011;51229;51.980;6.722;2023-02-11T03:15:07;24.95;;;9.65;;
64795;SDS011;51229;51.980;6.722;2023-02-11T03:17:35;23.15;;;10.68;;
64795;SDS011;51229;51.980;6.722;2023-02-11T03:20:04;27.33;;;11.73;;
64795;SDS011;51229;51.980;6.722;2023-02-11T03:22:35;21.55;;;10.52;;
64795;SDS011;51229;51.980;6.722;2023-02-11T03:25:03;18.27;;;10.15;;
64795;SDS011;51229;51.980;6.722;2023-02-11T03:30:19;21.85;;;11.45;;
64795;SDS011;51229;51.980;6.722;2023-02-11T03:33:04;23.52;;;10.48;;
64795;SDS011;51229;51.980;6.722;2023-02-11T03:35:34;23.80;;;12.05;;
64795;SDS011;51229;51.980;6.722;2023-02-11T03:38:06;19.65;;;10.52;;
64795;SDS011;51229;51.980;6.722;2023-02-11T03:40:34;22.50;;;12.07;;
64795;SDS011;51229;51.980;6.722;2023-02-11T03:43:08;21.45;;;9.55;;
64795;SDS011;51229;51.980;6.722;2023-02-11T03:45:35;19.40;;;9.52;;
64795;SDS011;51229;51.980;6.722;2023-02-11T03:48:05;22.77;;;11.32;;
64795;SDS011;51229;51.980;6.722;2023-02-11T03:50:33;21.63;;;10.48;;
64795;SDS011;51229;51.980;6.722;2023-02-11T03:53:01;21.38;;;10.00;;
64795;SDS011;51229;51.980;6.722;2023-02-11T03:55:27;25.45;;;10.95;;
64795;SDS011;51229;51.980;6.722;2023-02-11T03:57:54;21.52;;;10.48;;
64795;SDS011;51229;51.980;6.722;2023-02-11T04:00:21;18.50;;;10.18;;
64795;SDS011;51229;51.980;6.722;2023-02-11T04:02:53;18.50;;;10.30;;
64795;SDS011;51229;51.980;6.722;2023-02-11T04:05:20;23.10;;;11.68;;
64795;SDS011;51229;51.980;6.722;2023-02-11T04:07:46;21.58;;;11.15;;
64795;SDS011;51229;51.980;6.722;2023-02-11T04:10:12;20.88;;;11.05;;
64795;SDS011;51229;51.980;6.722;2023-02-11T04:12:38;20.95;;;10.80;;
64795;SDS011;51229;51.980;6.722;2023-02-11T04:15:04;20.60;;;11.02;;
64795;SDS011;51229;51.980;6.722;2023-02-11T04:17:30;22.52;;;10.30;;
64795;SDS011;51229;51.980;6.722;2023-02-11T04:19:56;25.80;;;11.80;;
64795;SDS011;51229;51.980;6.722;2023-02-11T04:22:22;22.25;;;11.05;;
64795;SDS011;51229;51.980;6.722;2023-02-11T04:24:48;20.58;;;10.82;;
64795;SDS011;51229;51.980;6.722;2023-02-11T04:27:15;20.27;;;11.88;;
64795;SDS011;51229;51.980;6.722;2023-02-11T04:29:41;18.77;;;9.82;;
64795;SDS011;51229;51.980;6.722;2023-02-11T04:32:08;21.73;;;10.82;;
64795;SDS011;51229;51.980;6.722;2023-02-11T04:34:34;20.67;;;10.35;;
64795;SDS011;51229;51.980;6.722;2023-02-11T04:37:00;20.30;;;11.10;;
64795;SDS011;51229;51.980;6.722;2023-02-11T04:39:26;22.38;;;11.20;;
64795;SDS011;51229;51.980;6.722;2023-02-11T04:41:52;23.40;;;11.65;;
64795;SDS011;51229;51.980;6.722;2023-02-11T04:44:18;19.00;;;9.38;;
64795;SDS011;51229;51.980;6.722;2023-02-11T04:46:44;24.60;;;10.65;;
64795;SDS011;51229;51.980;6.722;2023-02-11T04:49:11;24.42;;;10.80;;
64795;SDS011;51229;51.980;6.722;2023-02-11T04:51:38;22.67;;;11.05;;
64795;SDS011;51229;51.980;6.722;2023-02-11T04:54:04;21.08;;;10.95;;
64795;SDS011;51229;51.980;6.722;2023-02-11T04:56:30;23.50;;;11.40;;
64795;SDS011;51229;51.980;6.722;2023-02-11T04:58:56;21.33;;;10.98;;
64795;SDS011;51229;51.980;6.722;2023-02-11T05:01:22;21.02;;;10.73;;
64795;SDS011;51229;51.980;6.722;2023-02-11T05:03:48;24.33;;;11.07;;
64795;SDS011;51229;51.980;6.722;2023-02-11T05:06:15;21.90;;;10.65;;
64795;SDS011;51229;51.980;6.722;2023-02-11T05:08:41;21.05;;;10.73;;
64795;SDS011;51229;51.980;6.722;2023-02-11T05:11:07;24.85;;;11.98;;
64795;SDS011;51229;51.980;6.722;2023-02-11T05:13:33;21.95;;;11.23;;
64795;SDS011;51229;51.980;6.722;2023-02-11T05:15:59;25.17;;;12.05;;
64795;SDS011;51229;51.980;6.722;2023-02-11T05:18:25;25.48;;;11.68;;
64795;SDS011;51229;51.980;6.722;2023-02-11T05:20:51;25.17;;;11.88;;
64795;SDS011;51229;51.980;6.722;2023-02-11T05:23:17;24.05;;;11.50;;
64795;SDS011;51229;51.980;6.722;2023-02-11T05:25:43;25.33;;;11.70;;
64795;SDS011;51229;51.980;6.722;2023-02-11T05:28:10;25.70;;;12.25;;
64795;SDS011;51229;51.980;6.722;2023-02-11T05:30:36;25.63;;;13.55;;
64795;SDS011;51229;51.980;6.722;2023-02-11T05:33:02;24.98;;;13.25;;
64795;SDS011;51229;51.980;6.722;2023-02-11T05:35:28;24.63;;;13.23;;
64795;SDS011;51229;51.980;6.722;2023-02-11T05:37:54;29.58;;;13.35;;
64795;SDS011;51229;51.980;6.722;2023-02-11T05:40:20;29.33;;;13.68;;
64795;SDS011;51229;51.980;6.722;2023-02-11T05:42:46;25.83;;;14.10;;
64795;SDS011;51229;51.980;6.722;2023-02-11T05:45:12;24.85;;;13.32;;
64795;SDS011;51229;51.980;6.722;2023-02-11T05:47:38;26.55;;;13.27;;
64795;SDS011;51229;51.980;6.722;2023-02-11T05:50:04;28.95;;;13.80;;
64795;SDS011;51229;51.980;6.722;2023-02-11T05:52:30;29.08;;;13.10;;
64795;SDS011;51229;51.980;6.722;2023-02-11T05:54:56;25.33;;;13.93;;
64795;SDS011;51229;51.980;6.722;2023-02-11T05:57:23;27.00;;;14.48;;
64795;SDS011;51229;51.980;6.722;2023-02-11T05:59:49;28.08;;;14.20;;
64795;SDS011;51229;51.980;6.722;2023-02-11T06:02:15;30.33;;;14.02;;
64795;SDS011;51229;51.980;6.722;2023-02-11T06:04:41;27.05;;;12.65;;
64795;SDS011;51229;51.980;6.722;2023-02-11T06:07:08;28.27;;;14.13;;
64795;SDS011;51229;51.980;6.722;2023-02-11T06:09:35;35.97;;;14.48;;
64795;SDS011;51229;51.980;6.722;2023-02-11T06:12:01;32.88;;;14.82;;
64795;SDS011;51229;51.980;6.722;2023-02-11T06:14:27;29.95;;;14.27;;
64795;SDS011;51229;51.980;6.722;2023-02-11T06:16:53;26.67;;;13.35;;
64795;SDS011;51229;51.980;6.722;2023-02-11T06:19:19;25.10;;;14.20;;
64795;SDS011;51229;51.980;6.722;2023-02-11T06:21:45;27.90;;;13.95;;
64795;SDS011;51229;51.980;6.722;2023-02-11T06:24:11;27.73;;;14.43;;
64795;SDS011;51229;51.980;6.722;2023-02-11T06:26:37;28.00;;;15.30;;
64795;SDS011;51229;51.980;6.722;2023-02-11T06:29:03;28.25;;;14.05;;
64795;SDS011;51229;51.980;6.722;2023-02-11T06:31:29;33.80;;;16.45;;
64795;SDS011;51229;51.980;6.722;2023-02-11T06:33:56;36.25;;;15.82;;
64795;SDS011;51229;51.980;6.722;2023-02-11T06:36:23;30.35;;;13.68;;
64795;SDS011;51229;51.980;6.722;2023-02-11T06:38:49;35.80;;;15.65;;
64795;SDS011;51229;51.980;6.722;2023-02-11T06:41:16;26.70;;;12.77;;
64795;SDS011;51229;51.980;6.722;2023-02-11T06:43:44;31.00;;;15.30;;
64795;SDS011;51229;51.980;6.722;2023-02-11T06:46:10;33.03;;;14.65;;
64795;SDS011;51229;51.980;6.722;2023-02-11T06:48:36;33.85;;;17.15;;
64795;SDS011;51229;51.980;6.722;2023-02-11T06:51:03;32.83;;;15.43;;
64795;SDS011;51229;51.980;6.722;2023-02-11T06:53:30;26.15;;;12.93;;
64795;SDS011;51229;51.980;6.722;2023-02-11T06:56:00;34.50;;;15.02;;
64795;SDS011;51229;51.980;6.722;2023-02-11T06:58:26;34.05;;;14.38;;
64795;SDS011;51229;51.980;6.722;2023-02-11T07:00:52;33.40;;;15.43;;
64795;SDS011;51229;51.980;6.722;2023-02-11T07:03:18;34.90;;;17.42;;
64795;SDS011;51229;51.980;6.722;2023-02-11T07:05:45;33.67;;;16.00;;
64795;SDS011;51229;51.980;6.722;2023-02-11T07:08:11;35.10;;;15.13;;
64795;SDS011;51229;51.980;6.722;2023-02-11T07:10:37;32.88;;;16.77;;
64795;SDS011;51229;51.980;6.722;2023-02-11T07:13:03;31.73;;;17.80;;
64795;SDS011;51229;51.980;6.722;2023-02-11T07:15:29;30.65;;;15.35;;
64795;SDS011;51229;51.980;6.722;2023-02-11T07:17:55;33.67;;;16.40;;
64795;SDS011;51229;51.980;6.722;2023-02-11T07:20:21;38.10;;;15.25;;
64795;SDS011;51229;51.980;6.722;2023-02-11T07:22:48;32.65;;;16.50;;
64795;SDS011;51229;51.980;6.722;2023-02-11T07:25:14;29.52;;;15.52;;
64795;SDS011;51229;51.980;6.722;2023-02-11T07:27:40;35.03;;;16.10;;
64795;SDS011;51229;51.980;6.722;2023-02-11T07:30:06;36.95;;;16.40;;
64795;SDS011;51229;51.980;6.722;2023-02-11T07:32:32;27.70;;;15.43;;
64795;SDS011;51229;51.980;6.722;2023-02-11T07:34:58;45.20;;;18.23;;
64795;SDS011;51229;51.980;6.722;2023-02-11T07:37:24;33.88;;;16.15;;
64795;SDS011;51229;51.980;6.722;2023-02-11T07:39:50;41.25;;;17.55;;
64795;SDS011;51229;51.980;6.722;2023-02-11T07:42:16;35.90;;;17.67;;
64795;SDS011;51229;51.980;6.722;2023-02-11T07:44:43;41.33;;;18.10;;
64795;SDS011;51229;51.980;6.722;2023-02-11T07:47:12;39.95;;;17.42;;
64795;SDS011;51229;51.980;6.722;2023-02-11T07:49:38;39.28;;;18.10;;
64795;SDS011;51229;51.980;6.722;2023-02-11T07:52:04;34.53;;;16.38;;
64795;SDS011;51229;51.980;6.722;2023-02-11T07:54:30;40.17;;;18.80;;
64795;SDS011;51229;51.980;6.722;2023-02-11T07:56:56;38.90;;;17.50;;
64795;SDS011;51229;51.980;6.722;2023-02-11T07:59:22;44.58;;;18.67;;
64795;SDS011;51229;51.980;6.722;2023-02-11T08:01:49;42.85;;;19.75;;
64795;SDS011;51229;51.980;6.722;2023-02-11T08:04:15;36.85;;;16.08;;
64795;SDS011;51229;51.980;6.722;2023-02-11T08:06:42;44.35;;;19.42;;
64795;SDS011;51229;51.980;6.722;2023-02-11T08:09:10;37.50;;;17.30;;
64795;SDS011;51229;51.980;6.722;2023-02-11T08:11:39;43.35;;;19.50;;
64795;SDS011;51229;51.980;6.722;2023-02-11T08:14:05;35.03;;;16.17;;
64795;SDS011;51229;51.980;6.722;2023-02-11T08:16:35;45.78;;;19.73;;
64795;SDS011;51229;51.980;6.722;2023-02-11T08:19:02;44.65;;;19.65;;
64795;SDS011;51229;51.980;6.722;2023-02-11T08:21:29;33.20;;;13.55;;
64795;SDS011;51229;51.980;6.722;2023-02-11T08:23:55;40.92;;;18.13;;
64795;SDS011;51229;51.980;6.722;2023-02-11T08:26:25;46.50;;;20.33;;
64795;SDS011;51229;51.980;6.722;2023-02-11T08:28:53;46.53;;;19.58;;
64795;SDS011;51229;51.980;6.722;2023-02-11T08:31:20;44.15;;;20.08;;
64795;SDS011;51229;51.980;6.722;2023-02-11T08:33:46;50.58;;;21.40;;
64795;SDS011;51229;51.980;6.722;2023-02-11T08:36:14;51.10;;;20.63;;
64795;SDS011;51229;51.980;6.722;2023-02-11T08:38:40;46.50;;;20.30;;
64795;SDS011;51229;51.980;6.722;2023-02-11T08:41:06;50.47;;;21.63;;
64795;SDS011;51229;51.980;6.722;2023-02-11T08:43:33;49.88;;;20.85;;
64795;SDS011;51229;51.980;6.722;2023-02-11T08:46:00;50.03;;;21.48;;
64795;SDS011;51229;51.980;6.722;2023-02-11T08:48:26;52.03;;;20.95;;
64795;SDS011;51229;51.980;6.722;2023-02-11T08:50:55;49.17;;;20.58;;
64795;SDS011;51229;51.980;6.722;2023-02-11T08:53:22;53.90;;;20.90;;
64795;SDS011;51229;51.980;6.722;2023-02-11T08:55:52;51.85;;;22.05;;
64795;SDS011;51229;51.980;6.722;2023-02-11T08:58:18;55.28;;;22.80;;
64795;SDS011;51229;51.980;6.722;2023-02-11T09:00:45;49.05;;;19.38;;
64795;SDS011;51229;51.980;6.722;2023-02-11T09:03:12;50.78;;;22.00;;
64795;SDS011;51229;51.980;6.722;2023-02-11T09:05:41;53.85;;;22.48;;
64795;SDS011;51229;51.980;6.722;2023-02-11T09:08:08;46.63;;;21.23;;
64795;SDS011;51229;51.980;6.722;2023-02-11T09:10:34;51.15;;;21.83;;
64795;SDS011;51229;51.980;6.722;2023-02-11T09:13:00;53.67;;;23.05;;
64795;SDS011;51229;51.980;6.722;2023-02-11T09:15:26;54.78;;;21.00;;
64795;SDS011;51229;51.980;6.722;2023-02-11T09:17:52;46.38;;;19.80;;
64795;SDS011;51229;51.980;6.722;2023-02-11T09:20:18;40.42;;;18.05;;
64795;SDS011;51229;51.980;6.722;2023-02-11T09:22:46;55.97;;;22.80;;
64795;SDS011;51229;51.980;6.722;2023-02-11T09:25:12;49.95;;;22.13;;
64795;SDS011;51229;51.980;6.722;2023-02-11T09:27:38;52.03;;;22.10;;
64795;SDS011;51229;51.980;6.722;2023-02-11T09:30:04;51.70;;;22.20;;
64795;SDS011;51229;51.980;6.722;2023-02-11T09:32:30;52.15;;;21.17;;
64795;SDS011;51229;51.980;6.722;2023-02-11T09:34:56;57.75;;;22.55;;
64795;SDS011;51229;51.980;6.722;2023-02-11T09:37:22;60.00;;;23.95;;
64795;SDS011;51229;51.980;6.722;2023-02-11T09:39:48;46.40;;;19.67;;
64795;SDS011;51229;51.980;6.722;2023-02-11T09:42:36;53.40;;;21.77;;
64795;SDS011;51229;51.980;6.722;2023-02-11T09:45:18;54.40;;;21.30;;
64795;SDS011;51229;51.980;6.722;2023-02-11T09:47:49;52.15;;;22.23;;
64795;SDS011;51229;51.980;6.722;2023-02-11T09:50:29;59.15;;;23.23;;
64795;SDS011;51229;51.980;6.722;2023-02-11T09:53:00;50.72;;;21.00;;
64795;SDS011;51229;51.980;6.722;2023-02-11T09:55:28;55.45;;;22.52;;
64795;SDS011;51229;51.980;6.722;2023-02-11T09:57:54;49.83;;;21.25;;
64795;SDS011;51229;51.980;6.722;2023-02-11T10:02:59;47.03;;;20.27;;
64795;SDS011;51229;51.980;6.722;2023-02-11T10:05:30;45.65;;;22.23;;
64795;SDS011;51229;51.980;6.722;2023-02-11T10:08:08;53.35;;;24.33;;
64795;SDS011;51229;51.980;6.722;2023-02-11T10:10:46;55.15;;;23.92;;
64795;SDS011;51229;51.980;6.722;2023-02-11T10:18:38;49.80;;;20.60;;
64795;SDS011;51229;51.980;6.722;2023-02-11T10:21:14;49.45;;;20.73;;
64795;SDS011;51229;51.980;6.722;2023-02-11T10:23:44;52.88;;;22.35;;
64795;SDS011;51229;51.980;6.722;2023-02-11T10:26:12;49.35;;;24.00;;
64795;SDS011;51229;51.980;6.722;2023-02-11T10:28:39;47.15;;;21.35;;
64795;SDS011;51229;51.980;6.722;2023-02-11T10:31:07;51.10;;;21.58;;
64795;SDS011;51229;51.980;6.722;2023-02-11T10:36:01;44.83;;;19.40;;
64795;SDS011;51229;51.980;6.722;2023-02-11T10:38:27;53.85;;;23.45;;
64795;SDS011;51229;51.980;6.722;2023-02-11T10:40:54;51.20;;;21.60;;
64795;SDS011;51229;51.980;6.722;2023-02-11T10:43:22;47.38;;;21.17;;
64795;SDS011;51229;51.980;6.722;2023-02-11T10:45:51;48.45;;;22.73;;
64795;SDS011;51229;51.980;6.722;2023-02-11T10:48:37;43.33;;;19.58;;
64795;SDS011;51229;51.980;6.722;2023-02-11T10:53:42;55.38;;;21.85;;
64795;SDS011;51229;51.980;6.722;2023-02-11T10:56:10;39.55;;;18.00;;
64795;SDS011;51229;51.980;6.722;2023-02-11T11:01:05;38.17;;;15.95;;
64795;SDS011;51229;51.980;6.722;2023-02-11T11:03:36;46.83;;;20.60;;
64795;SDS011;51229;51.980;6.722;2023-02-11T11:06:04;38.05;;;16.85;;
64795;SDS011;51229;51.980;6.722;2023-02-11T11:08:47;46.28;;;21.55;;
64795;SDS011;51229;51.980;6.722;2023-02-11T11:11:15;43.63;;;21.17;;
64795;SDS011;51229;51.980;6.722;2023-02-11T11:19:12;44.55;;;20.58;;
64795;SDS011;51229;51.980;6.722;2023-02-11T11:21:45;42.95;;;20.95;;
64795;SDS011;51229;51.980;6.722;2023-02-11T11:26:41;43.67;;;18.60;;
64795;SDS011;51229;51.980;6.722;2023-02-11T11:29:09;48.40;;;20.80;;
64795;SDS011;51229;51.980;6.722;2023-02-11T11:36:58;48.22;;;20.58;;
64795;SDS011;51229;51.980;6.722;2023-02-11T11:39:26;48.45;;;19.58;;
64795;SDS011;51229;51.980;6.722;2023-02-11T11:41:53;45.13;;;19.00;;
64795;SDS011;51229;51.980;6.722;2023-02-11T11:44:22;39.90;;;18.27;;
64795;SDS011;51229;51.980;6.722;2023-02-11T11:46:50;42.20;;;19.63;;
64795;SDS011;51229;51.980;6.722;2023-02-11T11:49:27;39.72;;;18.73;;
64795;SDS011;51229;51.980;6.722;2023-02-11T11:52:02;46.72;;;19.17;;
64795;SDS011;51229;51.980;6.722;2023-02-11T11:54:34;40.88;;;18.52;;
64795;SDS011;51229;51.980;6.722;2023-02-11T11:57:09;45.50;;;19.85;;
64795;SDS011;51229;51.980;6.722;2023-02-11T11:59:37;42.70;;;19.63;;
64795;SDS011;51229;51.980;6.722;2023-02-11T12:20:38;47.97;;;20.73;;
64795;SDS011;51229;51.980;6.722;2023-02-11T12:25:33;42.05;;;19.00;;
64795;SDS011;51229;51.980;6.722;2023-02-11T12:28:07;44.78;;;19.50;;
64795;SDS011;51229;51.980;6.722;2023-02-11T12:30:40;44.03;;;19.38;;
64795;SDS011;51229;51.980;6.722;2023-02-11T12:35:44;37.63;;;18.40;;
64795;SDS011;51229;51.980;6.722;2023-02-11T12:53:58;37.00;;;18.05;;
64795;SDS011;51229;51.980;6.722;2023-02-11T12:56:45;38.83;;;18.60;;
64795;SDS011;51229;51.980;6.722;2023-02-11T12:59:15;32.28;;;16.75;;
64795;SDS011;51229;51.980;6.722;2023-02-11T13:01:43;34.63;;;16.77;;
64795;SDS011;51229;51.980;6.722;2023-02-11T13:04:20;38.90;;;19.25;;
64795;SDS011;51229;51.980;6.722;2023-02-11T13:06:54;40.33;;;18.33;;
64795;SDS011;51229;51.980;6.722;2023-02-11T13:09:25;37.50;;;16.98;;
64795;SDS011;51229;51.980;6.722;2023-02-11T13:11:53;38.40;;;18.27;;
64795;SDS011;51229;51.980;6.722;2023-02-11T13:14:30;38.28;;;18.58;;
64795;SDS011;51229;51.980;6.722;2023-02-11T13:16:59;37.25;;;18.38;;
64795;SDS011;51229;51.980;6.722;2023-02-11T13:19:31;37.72;;;19.02;;
64795;SDS011;51229;51.980;6.722;2023-02-11T13:22:06;33.80;;;18.75;;
64795;SDS011;51229;51.980;6.722;2023-02-11T13:24:37;39.90;;;18.08;;
64795;SDS011;51229;51.980;6.722;2023-02-11T13:29:41;32.10;;;15.95;;
64795;SDS011;51229;51.980;6.722;2023-02-11T13:32:14;28.90;;;14.40;;
64795;SDS011;51229;51.980;6.722;2023-02-11T13:39:55;27.42;;;14.30;;
64795;SDS011;51229;51.980;6.722;2023-02-11T13:42:23;33.10;;;15.38;;
64795;SDS011;51229;51.980;6.722;2023-02-11T13:44:49;34.70;;;17.48;;
64795;SDS011;51229;51.980;6.722;2023-02-11T13:50:19;33.10;;;16.48;;
64795;SDS011;51229;51.980;6.722;2023-02-11T13:52:46;35.05;;;17.25;;
64795;SDS011;51229;51.980;6.722;2023-02-11T13:57:38;30.70;;;15.88;;
64795;SDS011;51229;51.980;6.722;2023-02-11T14:02:35;32.15;;;16.42;;
64795;SDS011;51229;51.980;6.722;2023-02-11T14:05:24;32.53;;;16.10;;
64795;SDS011;51229;51.980;6.722;2023-02-11T14:11:01;28.35;;;15.43;;
64795;SDS011;51229;51.980;6.722;2023-02-11T14:21:14;26.85;;;15.15;;
64795;SDS011;51229;51.980;6.722;2023-02-11T14:23:42;27.23;;;15.80;;
64795;SDS011;51229;51.980;6.722;2023-02-11T14:26:20;31.42;;;17.08;;
64795;SDS011;51229;51.980;6.722;2023-02-11T14:42:00;26.55;;;14.68;;
64795;SDS011;51229;51.980;6.722;2023-02-11T14:44:27;29.65;;;14.50;;
64795;SDS011;51229;51.980;6.722;2023-02-11T14:46:55;29.15;;;15.50;;
64795;SDS011;51229;51.980;6.722;2023-02-11T14:49:26;25.58;;;15.07;;
64795;SDS011;51229;51.980;6.722;2023-02-11T14:51:54;30.27;;;15.40;;
64795;SDS011;51229;51.980;6.722;2023-02-11T14:54:25;25.85;;;15.50;;
64795;SDS011;51229;51.980;6.722;2023-02-11T14:57:10;25.35;;;13.43;;
64795;SDS011;51229;51.980;6.722;2023-02-11T14:59:38;22.73;;;14.32;;
64795;SDS011;51229;51.980;6.722;2023-02-11T15:02:23;26.15;;;15.02;;
64795;SDS011;51229;51.980;6.722;2023-02-11T15:04:50;31.15;;;15.43;;
64795;SDS011;51229;51.980;6.722;2023-02-11T15:07:16;29.08;;;14.20;;
64795;SDS011;51229;51.980;6.722;2023-02-11T15:09:43;22.75;;;14.13;;
64795;SDS011;51229;51.980;6.722;2023-02-11T15:12:18;23.95;;;13.63;;
64795;SDS011;51229;51.980;6.722;2023-02-11T15:14:47;28.48;;;14.35;;
64795;SDS011;51229;51.980;6.722;2023-02-11T15:17:16;24.58;;;13.93;;
64795;SDS011;51229;51.980;6.722;2023-02-11T15:19:44;23.77;;;13.73;;
64795;SDS011;51229;51.980;6.722;2023-02-11T15:22:16;26.50;;;15.00;;
64795;SDS011;51229;51.980;6.722;2023-02-11T15:24:44;25.13;;;13.95;;
64795;SDS011;51229;51.980;6.722;2023-02-11T15:27:11;21.88;;;13.27;;
64795;SDS011;51229;51.980;6.722;2023-02-11T15:29:48;23.20;;;13.25;;
64795;SDS011;51229;51.980;6.722;2023-02-11T15:32:18;26.40;;;13.77;;
64795;SDS011;51229;51.980;6.722;2023-02-11T15:34:46;23.27;;;13.52;;
64795;SDS011;51229;51.980;6.722;2023-02-11T15:37:13;24.40;;;14.48;;
64795;SDS011;51229;51.980;6.722;2023-02-11T15:39:41;23.90;;;14.43;;
64795;SDS011;51229;51.980;6.722;2023-02-11T15:42:14;25.10;;;14.02;;
64795;SDS011;51229;51.980;6.722;2023-02-11T15:44:40;26.60;;;13.98;;
64795;SDS011;51229;51.980;6.722;2023-02-11T15:47:10;24.98;;;13.63;;
64795;SDS011;51229;51.980;6.722;2023-02-11T15:49:36;26.85;;;13.75;;
64795;SDS011;51229;51.980;6.722;2023-02-11T15:52:04;23.35;;;14.25;;
64795;SDS011;51229;51.980;6.722;2023-02-11T15:54:32;21.02;;;13.00;;
64795;SDS011;51229;51.980;6.722;2023-02-11T15:57:00;23.33;;;14.45;;
64795;SDS011;51229;51.980;6.722;2023-02-11T15:59:32;26.02;;;13.27;;
64795;SDS011;51229;51.980;6.722;2023-02-11T16:02:06;22.58;;;14.35;;
64795;SDS011;51229;51.980;6.722;2023-02-11T16:04:34;22.50;;;13.63;;
64795;SDS011;51229;51.980;6.722;2023-02-11T16:07:00;22.33;;;13.15;;
64795;SDS011;51229;51.980;6.722;2023-02-11T16:09:31;25.05;;;13.50;;
64795;SDS011;51229;51.980;6.722;2023-02-11T16:11:59;21.23;;;12.73;;
64795;SDS011;51229;51.980;6.722;2023-02-11T16:16:55;23.92;;;13.57;;
64795;SDS011;51229;51.980;6.722;2023-02-11T16:19:23;24.88;;;13.23;;
64795;SDS011;51229;51.980;6.722;2023-02-11T16:21:49;23.38;;;13.43;;
64795;SDS011;51229;51.980;6.722;2023-02-11T16:24:32;26.52;;;14.52;;
64795;SDS011;51229;51.980;6.722;2023-02-11T16:27:40;22.52;;;13.27;;
64795;SDS011;51229;51.980;6.722;2023-02-11T16:29:48;23.10;;;14.18;;
64795;SDS011;51229;51.980;6.722;2023-02-11T16:32:16;21.95;;;13.57;;
64795;SDS011;51229;51.980;6.722;2023-02-11T16:34:42;24.63;;;13.75;;
64795;SDS011;51229;51.980;6.722;2023-02-11T16:37:08;22.10;;;13.55;;
64795;SDS011;51229;51.980;6.722;2023-02-11T16:39:34;22.35;;;13.35;;
64795;SDS011;51229;51.980;6.722;2023-02-11T16:42:00;22.48;;;13.18;;
64795;SDS011;51229;51.980;6.722;2023-02-11T16:44:27;25.02;;;13.18;;
64795;SDS011;51229;51.980;6.722;2023-02-11T16:46:54;21.48;;;12.80;;